Eastlake Weir, Florida
Current Conditions -  °F | °C
As of 4:53 AM on Thursday 29 Jan 2015 (Local Time) from KLEE Reporting Station
Clear Clear  
Wind Chill: 38°   Ceiling: Unl
Heat Index: 42°   Visibility: 10mi
Dew Point: 37°   Wind: 7mph
Humidity: 82%   Direction: 10°N
Pressure: 30.29"   Gusts: NA
Location:  29.02°N, 81.91°W
Report Text: KLEE 290953Z AUTO 01006KT 10SM CLR 06/03 A3029 RMK AO2 SLP255 T00560028
Loading
Personal Weather Stations






























Interactive Weather Map New forecast layout! Learn more

10-Day Weather Forecast

Advertisements
Track Severe Weather on mobile